createdAt,value
2023-04-23T00:00:17.249Z,15.40
2023-04-23T00:03:06.293Z,12.60
2023-04-23T00:05:53.189Z,13.47
2023-04-23T00:08:39.852Z,9.83
2023-04-23T00:11:24.128Z,10.93
2023-04-23T00:14:08.292Z,11.80
2023-04-23T00:16:54.084Z,11.60
2023-04-23T00:19:37.890Z,8.00
2023-04-23T00:22:22.221Z,19.90
2023-04-23T00:25:06.716Z,14.00
2023-04-23T00:27:50.755Z,20.47
2023-04-23T00:30:34.894Z,12.20
2023-04-23T00:33:20.945Z,11.33
2023-04-23T00:36:04.831Z,11.87
2023-04-23T00:38:48.638Z,9.10
2023-04-23T00:41:32.910Z,10.03
2023-04-23T00:44:16.867Z,11.70
2023-04-23T00:47:01.960Z,18.07
2023-04-23T00:49:47.614Z,8.23
2023-04-23T00:52:31.794Z,7.47
2023-04-23T00:55:15.968Z,11.17
2023-04-23T00:58:00.856Z,11.67
2023-04-23T01:00:48.600Z,10.97
2023-04-23T01:03:33.358Z,10.63
2023-04-23T01:06:19.070Z,11.07
2023-04-23T01:09:03.660Z,13.63
2023-04-23T01:11:48.604Z,8.27
2023-04-23T01:14:32.856Z,15.33
2023-04-23T01:17:17.181Z,15.77
2023-04-23T01:20:01.068Z,13.00
2023-04-23T01:22:49.467Z,16.30
2023-04-23T01:25:33.541Z,10.90
2023-04-23T01:28:17.649Z,11.83
2023-04-23T01:31:02.532Z,9.70
2023-04-23T01:33:47.977Z,14.20
2023-04-23T01:36:32.646Z,11.43
2023-04-23T01:39:18.353Z,14.93
2023-04-23T01:42:02.891Z,11.03
2023-04-23T01:44:47.259Z,10.60
2023-04-23T01:47:32.339Z,11.53
2023-04-23T01:50:16.644Z,11.77
2023-04-23T01:53:00.545Z,11.00
2023-04-23T01:55:48.203Z,9.30
2023-04-23T01:58:32.430Z,11.67
2023-04-23T02:01:16.396Z,12.00
2023-04-23T02:04:00.443Z,11.60
2023-04-23T02:06:47.231Z,12.00
2023-04-23T02:09:31.195Z,8.03
2023-04-23T02:12:19.565Z,6.93
2023-04-23T02:15:03.774Z,12.53
2023-04-23T02:17:52.437Z,11.50
2023-04-23T02:20:38.913Z,6.87
2023-04-23T02:23:22.816Z,12.80
2023-04-23T02:26:07.907Z,10.97
2023-04-23T02:28:53.325Z,9.40
2023-04-23T02:31:37.365Z,11.97
2023-04-23T02:34:21.249Z,13.40
2023-04-23T02:37:06.306Z,7.10
2023-04-23T02:39:50.452Z,11.20
2023-04-23T02:42:34.496Z,19.40
2023-04-23T02:45:20.002Z,13.47
2023-04-23T02:48:04.370Z,13.93
2023-04-23T02:50:48.400Z,11.07
2023-04-23T02:53:32.432Z,12.23
2023-04-23T02:56:16.632Z,14.87
2023-04-23T02:59:01.525Z,16.97
2023-04-23T03:01:46.938Z,15.77
2023-04-23T03:04:32.024Z,10.20
2023-04-23T03:07:17.512Z,14.67
2023-04-23T03:10:01.501Z,11.63
2023-04-23T03:12:48.476Z,12.57
2023-04-23T03:15:32.721Z,14.37
2023-04-23T03:18:18.106Z,10.87
2023-04-23T03:21:05.462Z,11.50
2023-04-23T03:23:49.424Z,14.20
2023-04-23T03:26:34.769Z,11.33
2023-04-23T03:29:18.798Z,15.47
2023-04-23T03:32:02.994Z,10.40
2023-04-23T03:34:49.038Z,13.97
2023-04-23T03:37:33.508Z,11.47
2023-04-23T03:40:17.948Z,16.60
2023-04-23T03:43:05.193Z,15.27
2023-04-23T03:46:09.080Z,10.80
2023-04-23T03:48:56.880Z,13.70
2023-04-23T03:51:45.748Z,11.03
2023-04-23T03:54:29.924Z,12.07
2023-04-23T03:57:33.239Z,14.33
2023-04-23T04:00:33.798Z,11.10
2023-04-23T04:03:17.999Z,12.30
2023-04-23T04:06:02.235Z,18.90
2023-04-23T04:08:47.850Z,16.03
2023-04-23T04:11:31.822Z,19.23
2023-04-23T04:14:15.749Z,16.97
2023-04-23T04:17:00.237Z,24.60
2023-04-23T04:19:44.222Z,17.13
2023-04-23T04:22:28.179Z,14.90
2023-04-23T04:25:13.494Z,12.13
2023-04-23T04:27:57.658Z,19.40
2023-04-23T04:30:42.618Z,12.50
2023-04-23T04:33:27.016Z,14.77
2023-04-23T04:36:11.099Z,15.23
2023-04-23T04:38:56.121Z,15.57
2023-04-23T04:41:41.729Z,16.37
2023-04-23T04:44:25.573Z,17.77
2023-04-23T04:47:09.537Z,13.73
2023-04-23T04:49:57.178Z,15.63
2023-04-23T04:52:41.128Z,15.23
2023-04-23T04:55:25.116Z,16.97
2023-04-23T04:58:10.383Z,13.10
2023-04-23T05:00:55.912Z,15.43
2023-04-23T05:03:40.126Z,12.00
2023-04-23T05:06:24.135Z,12.40
2023-04-23T05:09:08.320Z,13.53
2023-04-23T05:11:52.968Z,15.90
2023-04-23T05:14:38.261Z,14.23
2023-04-23T05:17:22.432Z,10.00
2023-04-23T05:20:08.436Z,12.20
2023-04-23T05:22:52.324Z,14.80
2023-04-23T05:25:36.226Z,17.30
2023-04-23T05:28:20.029Z,18.20
2023-04-23T05:31:05.440Z,38.73
2023-04-23T05:33:50.685Z,61.00
2023-04-23T05:36:35.057Z,61.03
2023-04-23T05:39:18.894Z,58.73
2023-04-23T05:42:03.213Z,61.33
2023-04-23T05:44:47.256Z,61.53
2023-04-23T05:47:32.513Z,76.87
2023-04-23T05:50:17.135Z,70.87
2023-04-23T05:53:00.957Z,61.60
2023-04-23T05:55:44.826Z,55.80
2023-04-23T05:58:28.596Z,63.93
2023-04-23T06:01:12.514Z,47.00
2023-04-23T06:03:58.068Z,39.10
2023-04-23T06:06:42.412Z,35.83
2023-04-23T06:09:26.436Z,32.80
2023-04-23T06:12:11.942Z,33.97
2023-04-23T06:14:56.813Z,42.47
2023-04-23T06:17:41.907Z,42.20
2023-04-23T06:20:27.253Z,50.57
2023-04-23T06:23:11.127Z,53.20
2023-04-23T06:25:55.045Z,55.30
2023-04-23T06:28:39.628Z,54.07
2023-04-23T06:31:43.876Z,47.30
2023-04-23T06:34:27.832Z,46.70
2023-04-23T06:37:13.013Z,41.90
2023-04-23T06:39:56.840Z,44.17
2023-04-23T06:42:40.797Z,50.77
2023-04-23T06:45:35.374Z,50.63
2023-04-23T06:48:19.346Z,36.83
2023-04-23T06:51:03.258Z,40.30
2023-04-23T06:53:48.661Z,41.80
2023-04-23T06:56:32.579Z,39.60
2023-04-23T06:59:17.023Z,41.03
2023-04-23T07:02:04.245Z,48.70
2023-04-23T07:04:48.156Z,43.80
2023-04-23T07:07:32.554Z,40.30
2023-04-23T07:10:18.235Z,44.20
2023-04-23T07:13:03.688Z,38.37
2023-04-23T07:15:49.116Z,43.70
2023-04-23T07:18:33.827Z,45.77
2023-04-23T07:21:18.180Z,43.70
2023-04-23T07:24:07.045Z,42.13
2023-04-23T07:26:52.798Z,36.40
2023-04-23T07:29:36.649Z,41.25
2023-04-23T07:32:22.165Z,35.20
2023-04-23T07:35:07.269Z,25.33
2023-04-23T07:37:53.938Z,22.27
2023-04-23T07:40:38.175Z,17.90
2023-04-23T07:43:23.423Z,19.90
2023-04-23T07:46:08.931Z,16.80
2023-04-23T07:48:53.146Z,13.13
2023-04-23T07:51:37.002Z,12.52
2023-04-23T07:54:20.889Z,17.00
2023-04-23T07:57:04.810Z,13.18
2023-04-23T07:59:50.210Z,11.40
2023-04-23T08:02:34.081Z,12.85
2023-04-23T08:05:18.172Z,14.50
2023-04-23T08:08:02.039Z,11.65
2023-04-23T08:10:46.855Z,11.65
2023-04-23T08:13:30.737Z,10.45
2023-04-23T08:16:16.529Z,10.45
2023-04-23T08:21:47.283Z,10.00
2023-04-23T08:24:31.243Z,7.07
2023-04-23T08:27:15.189Z,11.48
2023-04-23T08:29:58.926Z,9.35
2023-04-23T08:32:44.357Z,13.82
2023-04-23T08:35:28.177Z,9.65
2023-04-23T08:38:12.053Z,7.35
2023-04-23T08:40:58.940Z,12.38
2023-04-23T08:43:52.920Z,10.93
2023-04-23T08:46:38.647Z,9.52
2023-04-23T08:49:24.333Z,14.38
2023-04-23T08:52:18.176Z,13.25
2023-04-23T08:55:03.775Z,14.50
2023-04-23T08:57:49.767Z,11.05
2023-04-23T09:00:35.584Z,10.10
2023-04-23T09:03:20.887Z,10.43
2023-04-23T09:06:06.639Z,11.57
2023-04-23T09:08:50.796Z,12.25
2023-04-23T09:11:37.270Z,9.40
2023-04-23T09:14:22.713Z,10.20
2023-04-23T09:17:07.064Z,15.67
2023-04-23T09:19:52.385Z,9.73
2023-04-23T09:22:47.114Z,7.10
2023-04-23T09:25:31.455Z,14.07
2023-04-23T09:28:15.569Z,12.87
2023-04-23T09:31:00.936Z,12.80
2023-04-23T09:33:45.328Z,12.10
2023-04-23T09:36:29.190Z,9.20
2023-04-23T09:39:15.410Z,9.53
2023-04-23T09:42:05.643Z,6.30
2023-04-23T09:44:58.449Z,6.30
2023-04-23T09:47:50.774Z,6.00
2023-04-23T09:50:37.071Z,6.90
2023-04-23T09:53:21.317Z,15.40
2023-04-23T09:56:08.507Z,15.70
2023-04-23T09:58:52.388Z,15.17
2023-04-23T10:01:36.315Z,20.77
2023-04-23T10:04:22.464Z,18.47
2023-04-23T10:10:00.535Z,12.73
2023-04-23T10:12:54.898Z,12.37
2023-04-23T10:15:39.682Z,13.40
2023-04-23T10:18:23.557Z,14.67
2023-04-23T10:21:08.424Z,8.67
2023-04-23T10:23:52.851Z,11.13
2023-04-23T10:26:40.516Z,13.93
2023-04-23T10:29:29.215Z,9.10
2023-04-23T10:32:13.959Z,20.60
2023-04-23T10:34:57.968Z,24.60
2023-04-23T10:37:42.844Z,22.10
2023-04-23T10:40:31.748Z,10.83
2023-04-23T10:43:16.231Z,8.20
2023-04-23T10:46:01.724Z,8.87
2023-04-23T10:49:07.678Z,7.43
2023-04-23T10:52:18.918Z,6.10
2023-04-23T10:55:03.480Z,6.00
2023-04-23T10:58:02.884Z,8.23
2023-04-23T11:00:47.833Z,8.77
2023-04-23T11:03:43.599Z,10.63
2023-04-23T11:06:54.899Z,7.65
2023-04-23T11:09:44.520Z,13.75
2023-04-23T11:12:35.132Z,11.32
2023-04-23T11:15:20.912Z,8.98
2023-04-23T11:18:04.832Z,10.57
2023-04-23T11:20:51.533Z,5.43
2023-04-23T11:23:35.442Z,8.55
2023-04-23T11:26:19.586Z,19.15
2023-04-23T11:29:04.888Z,6.68
2023-04-23T11:32:01.524Z,8.88
2023-04-23T11:34:50.029Z,8.45
2023-04-23T11:37:39.681Z,5.72
2023-04-23T11:40:24.425Z,12.18
2023-04-23T11:43:09.685Z,6.88
2023-04-23T11:45:53.857Z,6.82
2023-04-23T11:48:37.760Z,6.32
2023-04-23T11:51:27.314Z,7.25
2023-04-23T11:54:13.900Z,4.15
2023-04-23T11:56:59.864Z,6.18
2023-04-23T11:59:44.213Z,3.67
2023-04-23T12:02:28.879Z,3.97
2023-04-23T12:05:13.029Z,3.33
2023-04-23T12:08:07.649Z,4.13
2023-04-23T12:10:54.517Z,5.28
2023-04-23T12:13:42.903Z,2.95
2023-04-23T12:16:36.247Z,4.80
2023-04-23T12:19:22.050Z,4.35
2023-04-23T12:22:08.280Z,4.82
2023-04-23T12:24:53.601Z,5.40
2023-04-23T12:27:42.669Z,3.35
2023-04-23T12:30:29.940Z,4.03
2023-04-23T12:33:13.857Z,5.93
2023-04-23T12:35:58.300Z,8.57
2023-04-23T12:38:42.621Z,7.55
2023-04-23T12:41:26.485Z,7.78
2023-04-23T12:44:12.229Z,9.15
2023-04-23T12:46:58.131Z,6.80
2023-04-23T12:49:44.060Z,6.97
2023-04-23T12:52:30.622Z,9.63
2023-04-23T12:55:14.516Z,8.15
2023-04-23T12:58:00.747Z,7.57
2023-04-23T13:00:46.482Z,8.48
2023-04-23T13:03:30.502Z,9.65
2023-04-23T13:06:14.362Z,5.68
2023-04-23T13:08:58.300Z,12.27
2023-04-23T13:11:42.688Z,9.30
2023-04-23T13:14:27.249Z,9.75
2023-04-23T13:17:12.600Z,8.73
2023-04-23T13:19:57.297Z,6.07
2023-04-23T13:22:41.224Z,5.72
2023-04-23T13:25:25.140Z,13.98
2023-04-23T13:28:09.089Z,7.03
2023-04-23T13:30:52.987Z,4.55
2023-04-23T13:33:38.252Z,9.02
2023-04-23T13:36:22.395Z,8.50
2023-04-23T13:39:07.311Z,8.27
2023-04-23T13:42:06.065Z,5.63
2023-04-23T13:44:52.654Z,5.65
2023-04-23T13:47:36.720Z,6.47
2023-04-23T13:50:22.420Z,7.65
2023-04-23T13:53:06.397Z,8.13
2023-04-23T13:55:50.233Z,6.68
2023-04-23T13:58:34.100Z,11.25
2023-04-23T14:01:18.018Z,9.73
2023-04-23T14:04:04.432Z,5.55
2023-04-23T14:06:50.137Z,16.02
2023-04-23T14:09:34.124Z,5.20
2023-04-23T14:12:18.720Z,10.95
2023-04-23T14:15:02.966Z,9.32
2023-04-23T14:17:49.316Z,7.10
2023-04-23T14:20:33.355Z,11.85
2023-04-23T14:23:50.519Z,8.20
2023-04-23T14:26:48.052Z,7.03
2023-04-23T14:29:37.909Z,10.63
2023-04-23T14:32:21.876Z,11.27
2023-04-23T14:35:06.470Z,12.55
2023-04-23T14:37:50.578Z,12.13
2023-04-23T14:40:35.877Z,10.95
2023-04-23T14:43:19.988Z,8.82
2023-04-23T14:46:03.910Z,13.00
2023-04-23T14:48:48.571Z,10.70
2023-04-23T14:51:33.917Z,7.35
2023-04-23T14:54:18.190Z,8.90
2023-04-23T14:57:03.679Z,10.23
2023-04-23T14:59:47.778Z,10.95
2023-04-23T15:02:32.988Z,10.93
2023-04-23T15:05:17.036Z,11.07
2023-04-23T15:08:01.574Z,9.85
2023-04-23T15:10:45.705Z,11.00
2023-04-23T15:13:40.213Z,6.57
2023-04-23T15:16:47.386Z,7.72
2023-04-23T15:19:32.987Z,7.78
2023-04-23T15:22:16.868Z,8.25
2023-04-23T15:25:00.815Z,9.32
2023-04-23T15:27:46.062Z,6.22
2023-04-23T15:30:31.448Z,10.88
2023-04-23T15:33:15.461Z,10.70
2023-04-23T15:35:59.986Z,8.27
2023-04-23T15:38:44.231Z,10.15
2023-04-23T15:41:28.224Z,12.68
2023-04-23T15:44:12.707Z,12.63
2023-04-23T15:47:01.337Z,14.30
2023-04-23T15:49:45.194Z,16.58
2023-04-23T15:52:29.107Z,12.82
2023-04-23T15:55:13.061Z,9.90
2023-04-23T15:57:59.064Z,17.42
2023-04-23T16:00:42.969Z,11.45
2023-04-23T16:03:28.398Z,19.58
2023-04-23T16:06:12.613Z,17.20
2023-04-23T16:08:56.539Z,6.93
2023-04-23T16:11:40.898Z,9.33
2023-04-23T16:14:24.780Z,11.13
2023-04-23T16:17:08.651Z,9.63
2023-04-23T16:19:53.926Z,10.57
2023-04-23T16:22:37.827Z,12.40
2023-04-23T16:25:21.857Z,13.07
2023-04-23T16:28:06.300Z,10.93
2023-04-23T16:30:50.476Z,12.77
2023-04-23T16:33:34.689Z,8.40
2023-04-23T16:36:21.423Z,9.17
2023-04-23T16:39:05.690Z,12.67
2023-04-23T16:41:49.788Z,11.93
2023-04-23T16:44:33.855Z,12.70
2023-04-23T16:47:18.074Z,12.53
2023-04-23T16:50:02.223Z,10.23
2023-04-23T16:52:50.737Z,14.17
2023-04-23T16:55:34.744Z,6.73
2023-04-23T16:58:19.130Z,10.70
2023-04-23T17:01:03.224Z,11.60
2023-04-23T17:03:47.501Z,14.33
2023-04-23T17:06:33.464Z,11.50
2023-04-23T17:09:20.215Z,8.50
2023-04-23T17:12:04.458Z,13.07
2023-04-23T17:14:48.698Z,8.47
2023-04-23T17:17:32.862Z,12.67
2023-04-23T17:20:17.082Z,18.80
2023-04-23T17:23:01.443Z,10.13
2023-04-23T17:25:47.191Z,11.07
2023-04-23T17:28:31.344Z,10.37
2023-04-23T17:31:15.924Z,12.60
2023-04-23T17:34:00.116Z,10.97
2023-04-23T17:36:44.499Z,9.83
2023-04-23T17:39:28.789Z,8.87
2023-04-23T17:42:14.857Z,15.43
2023-04-23T17:44:59.341Z,12.87
2023-04-23T17:47:43.731Z,15.80
2023-04-23T17:50:28.612Z,12.20
2023-04-23T17:53:12.767Z,10.33
2023-04-23T17:56:00.662Z,12.47
2023-04-23T17:58:46.700Z,9.47
2023-04-23T18:01:31.087Z,7.63
2023-04-23T18:04:17.516Z,10.40
2023-04-23T18:07:02.361Z,9.37
2023-04-23T18:09:47.424Z,12.17
2023-04-23T18:12:32.196Z,8.63
2023-04-23T18:15:17.907Z,9.10
2023-04-23T18:18:02.285Z,10.50
2023-04-23T18:20:47.733Z,9.10
2023-04-23T18:23:32.521Z,10.03
2023-04-23T18:26:16.846Z,12.47
2023-04-23T18:29:01.213Z,12.20
2023-04-23T18:31:46.864Z,12.33
2023-04-23T18:34:32.956Z,12.57
2023-04-23T18:37:34.104Z,10.97
2023-04-23T18:40:18.812Z,10.13
2023-04-23T18:43:04.077Z,15.17
2023-04-23T18:45:48.496Z,12.73
2023-04-23T18:48:59.635Z,11.00
2023-04-23T18:51:47.213Z,8.80
2023-04-23T18:54:31.717Z,8.80
2023-04-23T18:57:16.165Z,10.63
2023-04-23T19:00:00.404Z,11.13
2023-04-23T19:02:44.852Z,9.57
2023-04-23T19:05:31.986Z,11.77
2023-04-23T19:08:18.071Z,12.83
2023-04-23T19:11:02.905Z,7.20
2023-04-23T19:13:47.119Z,11.37
2023-04-23T19:16:31.708Z,14.23
2023-04-23T19:19:16.217Z,10.03
2023-04-23T19:22:04.283Z,14.57
2023-04-23T19:24:48.410Z,11.37
2023-04-23T19:27:32.560Z,11.77
2023-04-23T19:30:16.884Z,10.57
2023-04-23T19:33:01.355Z,11.50
2023-04-23T19:35:46.154Z,11.67
2023-04-23T19:38:31.759Z,10.07
2023-04-23T19:41:15.818Z,10.47
2023-04-23T19:44:00.148Z,12.73
2023-04-23T19:46:44.524Z,9.37
2023-04-23T19:49:29.224Z,9.80
2023-04-23T19:52:18.550Z,10.97
2023-04-23T19:55:04.527Z,10.03
2023-04-23T19:57:49.336Z,10.30
2023-04-23T20:00:42.618Z,18.13
2023-04-23T20:03:28.090Z,9.73
2023-04-23T20:06:12.710Z,11.03
2023-04-23T20:09:07.869Z,12.30
2023-04-23T20:11:53.852Z,9.83
2023-04-23T20:14:38.129Z,9.13
2023-04-23T20:17:22.409Z,12.47
2023-04-23T20:20:10.882Z,9.70
2023-04-23T20:22:55.246Z,12.47
2023-04-23T20:25:41.887Z,13.03
2023-04-23T20:28:27.638Z,13.83
2023-04-23T20:31:11.517Z,10.10
2023-04-23T20:33:55.967Z,12.37
2023-04-23T20:36:39.877Z,11.10
2023-04-23T20:39:24.477Z,13.50
2023-04-23T20:42:08.978Z,11.40
2023-04-23T20:44:54.203Z,12.27
2023-04-23T20:47:38.152Z,13.63
2023-04-23T20:50:22.309Z,12.03
2023-04-23T20:53:06.711Z,11.40
2023-04-23T20:55:50.961Z,11.43
2023-04-23T20:58:34.766Z,14.60
2023-04-23T21:01:20.084Z,13.67
2023-04-23T21:04:04.282Z,15.03
2023-04-23T21:06:48.362Z,8.83
2023-04-23T21:09:32.384Z,9.80
2023-04-23T21:12:16.199Z,10.63
2023-04-23T21:15:00.682Z,9.33
2023-04-23T21:17:45.898Z,10.67
2023-04-23T21:20:29.861Z,11.40
2023-04-23T21:23:13.977Z,11.33
2023-04-23T21:25:57.840Z,11.17
2023-04-23T21:28:41.753Z,11.90
2023-04-23T21:31:35.126Z,11.30
2023-04-23T21:34:21.491Z,14.17
2023-04-23T21:37:05.339Z,13.97
2023-04-23T21:39:49.175Z,11.67
2023-04-23T21:42:33.100Z,13.57
2023-04-23T21:45:17.725Z,17.53
2023-04-23T21:48:02.172Z,11.90
2023-04-23T21:50:48.251Z,12.97
2023-04-23T21:53:32.067Z,11.13
2023-04-23T21:56:16.481Z,14.33
2023-04-23T21:59:00.732Z,14.53
2023-04-23T22:01:44.534Z,13.47
2023-04-23T22:04:29.418Z,10.60
2023-04-23T22:07:14.810Z,14.40
2023-04-23T22:10:00.347Z,7.70
2023-04-23T22:12:45.942Z,11.70
2023-04-23T22:15:29.966Z,13.10
2023-04-23T22:18:13.839Z,12.97
2023-04-23T22:20:57.663Z,12.63
2023-04-23T22:23:42.906Z,9.37
2023-04-23T22:26:26.879Z,9.07
2023-04-23T22:29:10.743Z,12.43
2023-04-23T22:31:54.599Z,12.67
2023-04-23T22:34:38.653Z,15.23
2023-04-23T22:37:22.983Z,9.67
2023-04-23T22:40:10.467Z,8.50
2023-04-23T22:42:54.330Z,12.97
2023-04-23T22:45:38.136Z,10.87
2023-04-23T22:48:22.202Z,13.40
2023-04-23T22:51:07.075Z,13.77
2023-04-23T22:53:50.901Z,10.73
2023-04-23T22:56:37.696Z,12.97
2023-04-23T22:59:22.043Z,17.43
2023-04-23T23:02:06.101Z,10.93
2023-04-23T23:04:50.055Z,16.97
2023-04-23T23:07:33.965Z,16.83
2023-04-23T23:10:17.909Z,13.97
2023-04-23T23:13:04.746Z,12.83
2023-04-23T23:15:48.828Z,10.63
2023-04-23T23:18:32.812Z,17.50
2023-04-23T23:21:17.124Z,14.73
2023-04-23T23:24:01.253Z,13.17
2023-04-23T23:26:45.244Z,14.83
2023-04-23T23:29:30.513Z,17.17
2023-04-23T23:32:14.358Z,10.27
2023-04-23T23:34:58.270Z,11.50
2023-04-23T23:37:42.248Z,12.67
2023-04-23T23:40:26.205Z,11.80
2023-04-23T23:43:10.137Z,11.97
2023-04-23T23:45:55.297Z,9.30
2023-04-23T23:48:39.371Z,9.60
2023-04-23T23:51:23.185Z,8.47
2023-04-23T23:54:07.631Z,10.27
2023-04-23T23:56:51.612Z,8.93
2023-04-23T23:59:35.424Z,14.80
